Time;durP1;ratioP1;P1;durP2;ratioP2;P2;SDS_P1;SDS_P2;PMS_P1;PMS_P2;Temp;Humidity;BMP_temperature;BMP_pressure;BME280_temperature;BME280_humidity;BME280_pressure;Samples;Min_cycle;Max_cycle;Signal;HPM_P1;HPM_P2
2024/02/09 00:02:08;;;;;;;0.40;0.40;;;2.10;99.90;;;;;;4403397;32;20082;-77
2024/02/09 00:04:34;;;;;;;0.47;0.47;;;2.10;99.90;;;;;;4401827;32;20076;-77
2024/02/09 00:06:59;;;;;;;0.40;0.40;;;2.00;99.90;;;;;;4402775;32;20534;-74
2024/02/09 00:09:25;;;;;;;1.08;0.95;;;2.10;99.90;;;;;;4399236;32;20073;-76
2024/02/09 00:11:52;;;;;;;0.45;0.45;;;2.10;99.90;;;;;;4400795;32;20086;-76
2024/02/09 00:14:18;;;;;;;0.40;0.40;;;2.00;99.90;;;;;;4406304;32;20110;-75
2024/02/09 00:16:44;;;;;;;0.40;0.40;;;2.00;99.90;;;;;;4406263;32;20170;-74
2024/02/09 00:19:09;;;;;;;0.40;0.40;;;2.10;99.90;;;;;;4402758;32;20490;-74
2024/02/09 00:21:36;;;;;;;0.68;0.68;;;2.10;99.90;;;;;;4407820;32;20479;-75
2024/02/09 00:24:01;;;;;;;0.40;0.40;;;2.00;99.90;;;;;;4409363;32;20070;-75
2024/02/09 00:26:27;;;;;;;0.40;0.40;;;2.10;99.90;;;;;;4407111;32;20647;-75
2024/02/09 00:28:53;;;;;;;0.30;0.30;;;2.10;99.90;;;;;;4404985;32;20081;-73
2024/02/09 00:31:21;;;;;;;0.32;0.32;;;2.10;99.90;;;;;;4400034;32;20065;-76
2024/02/09 00:33:46;;;;;;;0.50;0.50;;;2.00;99.90;;;;;;4404407;32;20114;-76
2024/02/09 00:36:13;;;;;;;0.40;0.40;;;2.00;99.90;;;;;;4404337;32;20423;-74
2024/02/09 00:38:39;;;;;;;0.40;0.40;;;2.10;99.90;;;;;;4402416;32;20078;-74
2024/02/09 00:41:07;;;;;;;0.40;0.40;;;2.10;99.90;;;;;;4401242;32;20085;-74
2024/02/09 00:43:33;;;;;;;0.45;0.45;;;2.10;99.90;;;;;;4402329;32;20075;-76
2024/02/09 00:46:01;;;;;;;0.88;0.88;;;2.10;99.90;;;;;;4403152;32;20081;-76
2024/02/09 00:48:26;;;;;;;0.50;0.50;;;2.10;99.90;;;;;;4399419;32;20081;-76
2024/02/09 00:50:53;;;;;;;0.40;0.40;;;2.00;99.90;;;;;;4404774;32;20782;-74
2024/02/09 00:53:18;;;;;;;0.40;0.40;;;2.00;99.90;;;;;;4399122;32;20057;-76
2024/02/09 00:55:44;;;;;;;0.50;0.50;;;2.10;99.90;;;;;;4407147;32;20102;-76
2024/02/09 00:58:11;;;;;;;0.50;0.50;;;2.10;99.90;;;;;;4403601;32;20062;-76
2024/02/09 01:00:40;;;;;;;0.40;0.40;;;2.00;99.90;;;;;;4404231;32;20074;-77
2024/02/09 01:03:07;;;;;;;0.32;0.32;;;2.10;99.90;;;;;;4399174;32;20090;-77
2024/02/09 01:05:33;;;;;;;0.32;0.32;;;2.10;99.90;;;;;;4401590;32;20872;-78
2024/02/09 01:08:01;;;;;;;0.50;0.50;;;2.10;99.90;;;;;;4402006;32;20062;-77
2024/02/09 01:10:27;;;;;;;0.50;0.50;;;2.10;99.90;;;;;;4407334;32;20093;-77
2024/02/09 02:46:28;;;;;;;0.32;0.32;;;2.10;99.90;;;;;;4388638;32;20533;-77
2024/02/09 03:04:34;;;;;;;0.43;0.43;;;2.20;99.90;;;;;;4404342;32;20098;-77
2024/02/09 03:05:24;;;;;;;0.47;0.47;;;2.30;99.90;;;;;;4389798;32;20104;-76
2024/02/09 03:07:49;;;;;;;0.40;0.40;;;2.20;99.90;;;;;;4401089;32;20464;-77
2024/02/09 03:10:16;;;;;;;0.40;0.40;;;2.20;99.90;;;;;;4403551;32;20073;-76
2024/02/09 03:12:42;;;;;;;0.50;0.50;;;2.20;99.90;;;;;;4400787;32;20513;-76
2024/02/09 03:15:09;;;;;;;0.30;0.30;;;2.20;99.90;;;;;;4403009;32;20061;-76
2024/02/09 03:17:38;;;;;;;0.35;0.35;;;2.20;99.90;;;;;;4400794;32;20054;-76
2024/02/09 03:20:05;;;;;;;0.30;0.30;;;2.20;99.90;;;;;;4407086;32;20771;-73
2024/02/09 03:22:31;;;;;;;0.40;0.40;;;2.20;99.90;;;;;;4403080;32;20531;-75
2024/02/09 03:25:01;;;;;;;0.40;0.40;;;2.20;99.90;;;;;;4405233;32;20149;-74
2024/02/09 03:27:29;;;;;;;0.40;0.40;;;2.20;99.90;;;;;;4404881;32;20129;-73
2024/02/09 03:29:55;;;;;;;0.45;0.45;;;2.20;99.90;;;;;;4404427;32;20087;-76
2024/02/09 03:32:21;;;;;;;4.37;1.42;;;2.30;99.90;;;;;;4407629;32;20069;-75
2024/02/09 03:34:49;;;;;;;0.32;0.32;;;2.30;99.90;;;;;;4403254;32;20105;-73
2024/02/09 03:37:14;;;;;;;0.40;0.40;;;2.30;99.90;;;;;;4401057;32;20470;-78
2024/02/09 03:39:40;;;;;;;0.95;0.95;;;2.30;99.90;;;;;;4398792;32;20065;-77
2024/02/09 03:42:06;;;;;;;0.40;0.40;;;2.30;99.90;;;;;;4402751;32;20074;-77
2024/02/09 03:44:31;;;;;;;0.47;0.47;;;2.30;99.90;;;;;;4403841;32;20074;-76
2024/02/09 03:46:58;;;;;;;0.30;0.30;;;2.30;99.90;;;;;;4403787;32;20132;-77
2024/02/09 03:49:23;;;;;;;0.40;0.40;;;2.40;99.90;;;;;;4404313;32;20080;-77
2024/02/09 03:51:49;;;;;;;0.40;0.40;;;2.40;99.90;;;;;;4398175;32;20078;-77
2024/02/09 03:54:14;;;;;;;0.40;0.40;;;2.40;99.90;;;;;;4402585;32;20102;-77
2024/02/09 03:56:40;;;;;;;0.40;0.40;;;2.40;99.90;;;;;;4404475;32;20120;-77
2024/02/09 03:59:06;;;;;;;0.30;0.30;;;2.40;99.90;;;;;;4401265;32;20086;-77
2024/02/09 04:01:33;;;;;;;0.30;0.30;;;2.50;99.90;;;;;;4402693;32;20098;-77
2024/02/09 04:03:59;;;;;;;0.40;0.40;;;2.40;99.90;;;;;;4400518;32;20217;-77
2024/02/09 04:06:25;;;;;;;0.40;0.40;;;2.50;99.90;;;;;;4400219;32;21235;-77
2024/02/09 04:08:51;;;;;;;0.68;0.68;;;2.50;99.90;;;;;;4399877;32;20078;-77
2024/02/09 04:11:24;;;;;;;0.40;0.40;;;2.50;99.90;;;;;;4404784;32;20069;-77
2024/02/09 04:13:49;;;;;;;0.50;0.50;;;2.50;99.90;;;;;;4399514;32;20813;-77
2024/02/09 04:16:18;;;;;;;0.40;0.40;;;2.50;99.90;;;;;;4400604;32;20066;-77
2024/02/09 04:18:45;;;;;;;0.50;0.50;;;2.60;99.90;;;;;;4401638;32;20170;-77
2024/02/09 04:21:10;;;;;;;0.50;0.50;;;2.50;99.90;;;;;;4402206;32;20077;-77
2024/02/09 04:23:36;;;;;;;0.30;0.30;;;2.50;99.90;;;;;;4402876;32;20085;-77
2024/02/09 04:26:02;;;;;;;0.55;0.55;;;2.60;99.90;;;;;;4403028;32;20760;-76
2024/02/09 04:28:29;;;;;;;0.43;0.43;;;2.60;99.90;;;;;;4403582;32;20069;-74
2024/02/09 04:30:54;;;;;;;0.40;0.40;;;2.50;99.90;;;;;;4404718;32;20073;-75
2024/02/09 04:33:20;;;;;;;0.85;0.85;;;2.60;99.90;;;;;;4405513;32;20086;-75
2024/02/09 04:35:46;;;;;;;0.40;0.40;;;2.50;99.90;;;;;;4403744;32;20472;-75
2024/02/09 04:38:12;;;;;;;0.70;0.70;;;2.50;99.90;;;;;;4403852;32;20135;-75
2024/02/09 04:40:38;;;;;;;4.47;0.80;;;2.50;99.90;;;;;;4401638;32;20061;-75
2024/02/09 04:43:05;;;;;;;1.17;0.62;;;2.50;99.90;;;;;;4403076;32;20070;-76
2024/02/09 04:45:31;;;;;;;0.30;0.30;;;2.60;99.90;;;;;;4406208;32;20065;-77
2024/02/09 04:47:56;;;;;;;0.50;0.50;;;2.60;99.90;;;;;;4402905;32;20077;-77
2024/02/09 04:50:22;;;;;;;0.40;0.40;;;2.60;99.90;;;;;;4402227;32;20513;-77
2024/02/09 04:52:49;;;;;;;0.40;0.40;;;2.50;99.90;;;;;;4399971;32;20146;-77
2024/02/09 04:55:15;;;;;;;0.60;0.60;;;2.50;99.90;;;;;;4401054;32;20651;-77
2024/02/09 04:57:42;;;;;;;0.40;0.40;;;2.50;99.90;;;;;;4398952;32;20069;-77
2024/02/09 05:02:36;;;;;;;0.40;0.40;;;2.40;99.90;;;;;;4401067;32;20066;-76
2024/02/09 05:05:02;;;;;;;1.77;1.00;;;2.40;99.90;;;;;;4405765;32;20110;-77
2024/02/09 05:07:27;;;;;;;0.82;0.82;;;2.40;99.90;;;;;;4400625;32;20203;-77
2024/02/09 05:09:53;;;;;;;0.35;0.35;;;2.40;99.90;;;;;;4402334;32;20085;-77
2024/02/09 05:12:18;;;;;;;0.40;0.40;;;2.40;99.90;;;;;;4396776;32;20136;-77
2024/02/09 05:14:51;;;;;;;0.40;0.40;;;2.50;99.90;;;;;;4397669;32;20140;-77
2024/02/09 05:17:16;;;;;;;0.50;0.50;;;2.40;99.90;;;;;;4398258;32;20497;-76
2024/02/09 05:19:42;;;;;;;0.40;0.40;;;2.50;99.90;;;;;;4400559;32;20077;-76
2024/02/09 05:22:07;;;;;;;0.45;0.45;;;2.50;99.90;;;;;;4396087;32;20098;-76
2024/02/09 05:24:35;;;;;;;0.40;0.40;;;2.40;99.90;;;;;;4402873;32;21374;-76
2024/02/09 05:27:00;;;;;;;0.40;0.40;;;2.40;99.90;;;;;;4399852;32;20180;-77
2024/02/09 05:29:26;;;;;;;0.40;0.40;;;2.50;99.90;;;;;;4402260;32;20154;-77
2024/02/09 05:31:58;;;;;;;0.40;0.40;;;2.40;99.90;;;;;;4403079;32;20499;-77
2024/02/09 05:34:25;;;;;;;0.40;0.40;;;2.40;99.90;;;;;;4403671;32;20089;-76
2024/02/09 05:36:54;;;;;;;0.30;0.30;;;2.50;99.90;;;;;;4404662;32;20152;-75
2024/02/09 05:39:19;;;;;;;0.40;0.40;;;2.50;99.90;;;;;;4403419;32;20151;-74
2024/02/09 05:41:45;;;;;;;0.40;0.40;;;2.60;99.90;;;;;;4404864;32;20141;-75
2024/02/09 05:44:12;;;;;;;0.40;0.40;;;2.60;99.90;;;;;;4403788;32;20133;-75
2024/02/09 05:46:38;;;;;;;0.40;0.40;;;2.50;99.90;;;;;;4407197;32;20062;-75
2024/02/09 05:49:06;;;;;;;0.40;0.40;;;2.50;99.90;;;;;;4404648;32;20094;-74
2024/02/09 05:51:32;;;;;;;0.40;0.40;;;2.60;99.90;;;;;;4403132;32;20086;-75
2024/02/09 05:53:58;;;;;;;0.40;0.40;;;2.60;99.90;;;;;;4404674;32;20133;-75
2024/02/09 05:56:25;;;;;;;0.43;0.43;;;2.60;99.90;;;;;;4404512;32;20089;-74
2024/02/09 05:58:55;;;;;;;0.37;0.37;;;2.60;99.90;;;;;;4403862;32;20464;-76
2024/02/09 06:01:20;;;;;;;0.30;0.30;;;2.70;99.90;;;;;;4405215;32;20070;-78
2024/02/09 06:03:46;;;;;;;1.08;0.90;;;2.60;99.90;;;;;;4401945;32;20407;-75
2024/02/09 06:06:15;;;;;;;0.40;0.40;;;2.50;99.90;;;;;;4390656;32;20219;-77
2024/02/09 06:08:45;;;;;;;0.40;0.40;;;2.50;99.90;;;;;;4397569;32;20719;-76
2024/02/09 06:11:11;;;;;;;0.40;0.40;;;2.50;99.90;;;;;;4403905;32;20102;-76
2024/02/09 06:13:37;;;;;;;0.40;0.40;;;2.60;99.90;;;;;;4393193;32;20561;-76
2024/02/09 06:16:04;;;;;;;0.40;0.40;;;2.50;99.90;;;;;;4401724;32;20077;-76
2024/02/09 06:18:31;;;;;;;0.40;0.40;;;2.50;99.90;;;;;;4403453;32;20790;-75
2024/02/09 06:21:00;;;;;;;0.43;0.43;;;2.50;99.90;;;;;;4392009;32;20117;-77
2024/02/09 06:23:26;;;;;;;0.40;0.40;;;2.60;99.90;;;;;;4401325;32;20124;-74
2024/02/09 06:25:52;;;;;;;0.50;0.50;;;2.60;99.90;;;;;;4393657;32;20565;-77
2024/02/09 06:28:19;;;;;;;0.30;0.30;;;2.60;99.90;;;;;;4388529;32;20090;-75
2024/02/09 06:30:48;;;;;;;0.40;0.40;;;2.60;99.90;;;;;;4403279;32;20511;-76
2024/02/09 06:33:24;;;;;;;0.40;0.40;;;2.60;99.90;;;;;;4401874;32;20128;-76
2024/02/09 06:35:49;;;;;;;0.40;0.40;;;2.60;99.90;;;;;;4403035;32;20517;-75
2024/02/09 06:38:17;;;;;;;0.30;0.30;;;2.60;99.90;;;;;;4403478;32;20081;-74
2024/02/09 06:40:43;;;;;;;0.30;0.30;;;2.60;99.90;;;;;;4403938;32;20077;-74
2024/02/09 06:43:18;;;;;;;0.50;0.50;;;2.60;99.90;;;;;;4403413;32;20562;-75
2024/02/09 06:45:43;;;;;;;0.30;0.30;;;2.60;99.90;;;;;;4403456;32;20423;-75
2024/02/09 06:48:09;;;;;;;0.30;0.30;;;2.60;99.90;;;;;;4402371;32;21026;-74
2024/02/09 06:50:37;;;;;;;0.35;0.35;;;2.60;99.90;;;;;;4403400;32;20483;-75
2024/02/09 06:53:05;;;;;;;0.40;0.40;;;2.60;99.90;;;;;;4405205;32;20521;-75
2024/02/09 06:55:31;;;;;;;0.60;0.60;;;2.70;99.90;;;;;;4404035;32;20062;-74
2024/02/09 06:57:57;;;;;;;0.30;0.30;;;2.70;99.90;;;;;;4406622;32;20077;-74
2024/02/09 07:00:25;;;;;;;0.37;0.37;;;2.70;99.90;;;;;;4400985;32;20553;-74
2024/02/09 07:02:51;;;;;;;0.75;0.75;;;2.70;99.90;;;;;;4408837;32;20112;-75
2024/02/09 07:05:19;;;;;;;0.32;0.32;;;2.70;99.90;;;;;;4406306;32;20165;-76
2024/02/09 07:07:49;;;;;;;0.30;0.30;;;2.70;99.90;;;;;;4405198;32;20065;-75
2024/02/09 07:10:17;;;;;;;0.32;0.32;;;2.70;99.90;;;;;;4405303;32;20077;-76
2024/02/09 07:12:44;;;;;;;0.30;0.30;;;2.70;99.90;;;;;;4407078;32;20098;-76
2024/02/09 07:15:10;;;;;;;0.40;0.40;;;2.70;99.90;;;;;;4402701;32;20086;-74
2024/02/09 07:17:36;;;;;;;0.30;0.30;;;2.70;99.90;;;;;;4404364;32;20636;-75
2024/02/09 07:20:03;;;;;;;0.50;0.50;;;2.80;99.90;;;;;;4405041;32;20086;-76
2024/02/09 07:22:29;;;;;;;0.40;0.40;;;2.80;99.90;;;;;;4404122;32;20533;-75
2024/02/09 07:24:55;;;;;;;0.45;0.45;;;2.80;99.90;;;;;;4404550;32;20169;-75
2024/02/09 07:27:21;;;;;;;0.30;0.30;;;2.70;99.90;;;;;;4402870;32;20570;-74
2024/02/09 07:29:46;;;;;;;0.40;0.40;;;2.70;99.90;;;;;;4402479;32;20070;-74
2024/02/09 07:32:13;;;;;;;0.40;0.40;;;2.60;99.90;;;;;;4403594;32;20081;-75
2024/02/09 07:34:38;;;;;;;0.43;0.43;;;2.60;99.90;;;;;;4406266;32;20069;-76
2024/02/09 07:37:04;;;;;;;0.30;0.30;;;2.70;99.90;;;;;;4404627;32;20438;-75
2024/02/09 07:39:32;;;;;;;0.30;0.30;;;2.70;99.90;;;;;;4401086;32;20062;-75
2024/02/09 07:41:58;;;;;;;0.35;0.35;;;2.70;99.90;;;;;;4408722;32;20548;-76
2024/02/09 07:44:25;;;;;;;5.28;1.02;;;2.80;99.90;;;;;;4406649;32;20069;-74
2024/02/09 07:46:53;;;;;;;0.40;0.40;;;2.80;99.90;;;;;;4389349;32;20085;-75
2024/02/09 07:49:19;;;;;;;0.40;0.40;;;2.80;99.90;;;;;;4404441;32;20554;-74
2024/02/09 07:51:45;;;;;;;0.40;0.40;;;2.80;99.90;;;;;;4405429;32;20095;-75
2024/02/09 07:54:10;;;;;;;0.50;0.50;;;2.80;99.90;;;;;;4404980;32;20249;-75
2024/02/09 07:56:36;;;;;;;0.68;0.68;;;2.80;99.90;;;;;;4403197;32;20556;-76
2024/02/09 07:59:01;;;;;;;0.40;0.40;;;2.80;99.90;;;;;;4402210;32;20088;-76
2024/02/09 08:01:29;;;;;;;0.40;0.40;;;2.80;99.90;;;;;;4402653;32;20066;-77
2024/02/09 08:03:57;;;;;;;0.30;0.30;;;2.80;99.90;;;;;;4402500;32;20077;-75
2024/02/09 08:06:23;;;;;;;0.30;0.30;;;2.90;99.90;;;;;;4403076;32;20498;-75
2024/02/09 08:08:52;;;;;;;0.40;0.40;;;2.90;99.90;;;;;;4400669;32;20427;-75
2024/02/09 08:11:19;;;;;;;0.40;0.40;;;2.80;99.90;;;;;;4402668;32;20094;-76
2024/02/09 08:13:45;;;;;;;0.40;0.40;;;2.90;99.90;;;;;;4405215;32;20534;-74
2024/02/09 08:16:11;;;;;;;0.40;0.40;;;2.90;99.90;;;;;;4406324;32;20136;-76
2024/02/09 08:18:36;;;;;;;0.40;0.40;;;2.90;99.90;;;;;;4401022;32;20134;-76
2024/02/09 08:21:02;;;;;;;0.40;0.40;;;3.00;99.90;;;;;;4402514;32;20525;-76
2024/02/09 08:23:29;;;;;;;0.40;0.40;;;3.00;99.90;;;;;;4401437;32;21072;-76
2024/02/09 08:25:55;;;;;;;0.30;0.30;;;2.90;99.90;;;;;;4389380;32;20128;-78
2024/02/09 08:28:20;;;;;;;0.30;0.30;;;3.00;99.90;;;;;;4403385;32;20069;-77
2024/02/09 08:30:46;;;;;;;0.40;0.40;;;3.00;99.90;;;;;;4403717;32;20147;-77
2024/02/09 08:33:11;;;;;;;0.40;0.40;;;3.00;99.90;;;;;;4398027;32;20081;-77
2024/02/09 08:35:37;;;;;;;0.40;0.40;;;3.10;99.90;;;;;;4401530;32;20077;-77
2024/02/09 08:38:02;;;;;;;0.40;0.40;;;3.20;99.90;;;;;;4400458;32;20077;-76
2024/02/09 08:40:27;;;;;;;0.40;0.40;;;3.20;99.90;;;;;;4401400;32;20423;-77
2024/02/09 08:42:53;;;;;;;0.40;0.40;;;3.20;99.90;;;;;;4405344;32;20066;-75
2024/02/09 08:45:19;;;;;;;0.30;0.30;;;3.10;99.90;;;;;;4402186;32;20502;-75
2024/02/09 08:47:45;;;;;;;0.62;0.62;;;3.20;99.90;;;;;;4406652;32;20082;-75
2024/02/09 08:50:11;;;;;;;0.35;0.35;;;3.20;99.90;;;;;;4402078;32;20834;-74
2024/02/09 08:52:36;;;;;;;0.43;0.43;;;3.10;99.90;;;;;;4408810;32;20358;-74
2024/02/09 08:55:02;;;;;;;0.40;0.40;;;3.10;99.90;;;;;;4402353;32;20085;-75
2024/02/09 08:57:27;;;;;;;0.40;0.40;;;3.20;99.90;;;;;;4404984;32;20469;-76
2024/02/09 08:59:53;;;;;;;0.30;0.30;;;3.20;99.90;;;;;;4403732;32;20105;-74
2024/02/09 09:02:18;;;;;;;0.52;0.52;;;3.20;99.90;;;;;;4400078;32;20196;-75
2024/02/09 09:04:44;;;;;;;0.50;0.50;;;3.10;99.90;;;;;;4399609;32;20062;-74
2024/02/09 09:07:10;;;;;;;0.43;0.43;;;3.10;99.90;;;;;;4401295;32;20154;-76
2024/02/09 09:09:36;;;;;;;0.65;0.65;;;3.10;99.90;;;;;;4404594;32;20550;-76
2024/02/09 09:12:04;;;;;;;0.40;0.40;;;3.10;99.90;;;;;;4388376;32;20085;-77
2024/02/09 09:14:32;;;;;;;0.35;0.35;;;3.10;99.90;;;;;;4403847;32;20077;-75
2024/02/09 09:16:58;;;;;;;0.40;0.40;;;3.10;99.90;;;;;;4406698;32;20087;-73
2024/02/09 09:19:25;;;;;;;0.60;0.60;;;3.10;99.90;;;;;;4405366;32;20065;-74
2024/02/09 09:21:51;;;;;;;0.80;0.60;;;3.10;99.90;;;;;;4405248;32;20109;-77
2024/02/09 09:24:16;;;;;;;0.30;0.30;;;3.20;99.90;;;;;;4404982;32;20432;-76
2024/02/09 09:26:42;;;;;;;0.30;0.30;;;3.20;99.90;;;;;;4405337;32;20094;-77
2024/02/09 09:29:08;;;;;;;0.40;0.40;;;3.20;99.90;;;;;;4406787;32;20525;-77
2024/02/09 09:31:35;;;;;;;0.30;0.30;;;3.30;99.90;;;;;;4405116;32;20085;-78
2024/02/09 09:34:00;;;;;;;0.40;0.40;;;3.30;99.90;;;;;;4406709;32;20069;-75
2024/02/09 09:36:26;;;;;;;0.40;0.40;;;3.30;99.90;;;;;;4402991;32;20466;-76
2024/02/09 09:38:53;;;;;;;0.45;0.45;;;3.20;99.90;;;;;;4401832;32;20058;-76
2024/02/09 09:41:19;;;;;;;0.30;0.30;;;3.20;99.90;;;;;;4403878;32;20144;-76
2024/02/09 09:43:47;;;;;;;0.32;0.32;;;3.30;99.90;;;;;;4405761;32;20081;-76
2024/02/09 09:46:12;;;;;;;0.30;0.30;;;3.30;99.90;;;;;;4403928;32;20081;-76
2024/02/09 09:48:39;;;;;;;0.40;0.40;;;3.30;99.90;;;;;;4401554;32;20097;-76
2024/02/09 09:51:05;;;;;;;0.30;0.30;;;3.30;99.90;;;;;;4388425;32;20105;-76
2024/02/09 09:53:39;;;;;;;0.30;0.30;;;3.30;99.90;;;;;;4404122;32;20085;-76
2024/02/09 09:56:06;;;;;;;0.32;0.32;;;3.40;99.90;;;;;;4404546;32;20073;-76
2024/02/09 09:58:33;;;;;;;0.70;0.70;;;3.40;99.90;;;;;;4404336;32;20075;-76
2024/02/09 10:00:59;;;;;;;0.30;0.30;;;3.30;99.90;;;;;;4406452;32;20176;-76
2024/02/09 10:03:29;;;;;;;0.40;0.40;;;3.30;99.90;;;;;;4402953;32;20069;-75
2024/02/09 10:05:55;;;;;;;0.40;0.40;;;3.30;99.90;;;;;;4404765;32;20569;-76
2024/02/09 10:08:21;;;;;;;0.40;0.40;;;3.40;99.90;;;;;;4405038;32;20090;-77
2024/02/09 10:10:50;;;;;;;0.25;0.25;;;3.30;99.90;;;;;;4403160;32;20546;-75
2024/02/09 10:13:16;;;;;;;0.50;0.50;;;3.40;99.90;;;;;;4399759;32;20089;-77
2024/02/09 10:15:46;;;;;;;0.40;0.40;;;3.50;99.90;;;;;;4401704;32;20124;-78
2024/02/09 10:18:12;;;;;;;0.40;0.40;;;3.50;99.90;;;;;;4403003;32;20153;-77
2024/02/09 10:20:38;;;;;;;0.37;0.37;;;3.60;99.90;;;;;;4403659;32;20208;-77
2024/02/09 10:23:04;;;;;;;0.45;0.45;;;3.60;99.90;;;;;;4401779;32;20412;-78
2024/02/09 10:25:32;;;;;;;0.40;0.40;;;3.60;99.90;;;;;;4403353;32;20057;-79
2024/02/09 10:27:58;;;;;;;0.35;0.35;;;3.70;99.90;;;;;;4389866;32;20096;-78
2024/02/09 10:30:25;;;;;;;0.77;0.77;;;3.70;99.90;;;;;;4403034;32;20082;-79
2024/02/09 10:32:51;;;;;;;0.50;0.50;;;3.70;99.90;;;;;;4402674;32;20077;-77
2024/02/09 10:35:17;;;;;;;0.32;0.32;;;3.80;99.90;;;;;;4403923;32;21183;-77
2024/02/09 10:37:43;;;;;;;0.40;0.40;;;3.80;99.90;;;;;;4401083;32;20492;-77
2024/02/09 10:40:11;;;;;;;0.35;0.35;;;3.80;99.90;;;;;;4399912;32;20109;-77
2024/02/09 10:42:40;;;;;;;0.60;0.60;;;3.80;99.90;;;;;;4400693;32;20094;-78
2024/02/09 10:45:10;;;;;;;0.77;0.73;;;3.80;99.90;;;;;;4402344;32;21177;-77
2024/02/09 10:47:39;;;;;;;0.30;0.30;;;3.80;99.90;;;;;;4401908;32;20077;-80
2024/02/09 10:50:07;;;;;;;0.52;0.52;;;3.80;99.90;;;;;;4404690;32;21257;-78
2024/02/09 10:52:37;;;;;;;0.37;0.37;;;3.80;99.90;;;;;;4398533;32;20137;-77
2024/02/09 10:55:06;;;;;;;0.55;0.55;;;3.80;99.90;;;;;;4406291;32;20510;-78
2024/02/09 10:57:34;;;;;;;0.40;0.40;;;3.90;99.90;;;;;;4403049;32;20085;-78
2024/02/09 11:00:00;;;;;;;0.40;0.40;;;3.90;99.90;;;;;;4404252;32;20136;-78
2024/02/09 11:02:29;;;;;;;0.30;0.30;;;4.00;99.90;;;;;;4402387;32;20078;-78
2024/02/09 11:04:57;;;;;;;0.30;0.30;;;4.00;99.90;;;;;;4400420;32;20585;-77
2024/02/09 11:07:24;;;;;;;0.30;0.30;;;4.00;99.90;;;;;;4398716;32;20517;-77
2024/02/09 11:09:50;;;;;;;0.50;0.50;;;4.10;99.90;;;;;;4402168;32;20445;-77
2024/02/09 11:12:19;;;;;;;0.40;0.40;;;4.10;99.90;;;;;;4397448;32;20125;-77
2024/02/09 11:14:45;;;;;;;0.40;0.40;;;4.20;99.90;;;;;;4396552;32;20156;-77
2024/02/09 11:17:12;;;;;;;0.30;0.30;;;4.20;99.90;;;;;;4399537;32;20192;-79
2024/02/09 11:19:39;;;;;;;0.52;0.52;;;4.20;99.90;;;;;;4401224;32;20076;-79
2024/02/09 11:22:06;;;;;;;0.57;0.57;;;4.10;99.90;;;;;;4391493;32;20525;-77
2024/02/09 11:24:32;;;;;;;2.17;0.95;;;4.20;99.90;;;;;;4396326;32;20070;-78
2024/02/09 11:26:59;;;;;;;0.30;0.30;;;4.20;99.90;;;;;;4397035;32;20486;-78
2024/02/09 11:29:25;;;;;;;2.40;1.02;;;4.20;99.90;;;;;;4399596;32;20061;-77
2024/02/09 11:31:53;;;;;;;0.43;0.43;;;4.30;99.90;;;;;;4402508;32;20125;-79
2024/02/09 11:34:23;;;;;;;2.83;1.15;;;4.40;99.90;;;;;;4407118;32;20107;-78
2024/02/09 11:36:48;;;;;;;0.50;0.50;;;4.40;99.90;;;;;;4401607;32;20593;-77
2024/02/09 11:39:16;;;;;;;0.50;0.50;;;4.30;99.90;;;;;;4402381;32;21207;-77
2024/02/09 11:41:43;;;;;;;0.40;0.40;;;4.40;99.90;;;;;;4403480;32;20074;-78
2024/02/09 11:44:09;;;;;;;0.50;0.50;;;4.40;99.90;;;;;;4404580;32;20092;-77
2024/02/09 11:46:36;;;;;;;0.47;0.47;;;4.40;99.90;;;;;;4403279;32;20137;-78
2024/02/09 11:49:04;;;;;;;0.98;0.75;;;4.50;99.90;;;;;;4403751;32;20066;-78
2024/02/09 11:53:37;;;;;;;0.40;0.40;;;4.50;99.90;;;;;;4456161;32;98631;-60
2024/02/09 11:56:04;;;;;;;0.30;0.30;;;4.60;99.90;;;;;;4440830;32;20128;-59
2024/02/09 11:58:30;;;;;;;0.30;0.30;;;4.60;99.90;;;;;;4440497;32;20405;-59
2024/02/09 12:00:57;;;;;;;0.50;0.50;;;4.60;99.90;;;;;;4443123;32;20101;-60
2024/02/09 12:03:23;;;;;;;0.47;0.47;;;4.60;99.90;;;;;;4446106;32;20484;-60
2024/02/09 12:05:50;;;;;;;1.73;1.58;;;4.70;99.90;;;;;;4440961;32;20092;-59
2024/02/09 12:08:18;;;;;;;0.50;0.50;;;4.80;99.90;;;;;;4441148;32;20178;-59
2024/02/09 12:10:44;;;;;;;0.47;0.47;;;4.70;99.90;;;;;;4426520;32;20069;-59
2024/02/09 12:13:11;;;;;;;0.37;0.37;;;4.70;99.90;;;;;;4441828;32;20206;-60
2024/02/09 12:15:36;;;;;;;0.73;0.73;;;4.70;99.90;;;;;;4444874;32;20089;-59
2024/02/09 12:18:02;;;;;;;0.40;0.40;;;4.80;99.90;;;;;;4438883;32;20069;-59
2024/02/09 12:20:28;;;;;;;0.50;0.50;;;4.90;99.90;;;;;;4430089;32;20069;-58
2024/02/09 12:22:55;;;;;;;0.37;0.37;;;4.90;99.90;;;;;;4427375;32;20417;-59
2024/02/09 12:25:22;;;;;;;0.85;0.82;;;5.00;99.90;;;;;;4427346;32;20207;-60
2024/02/09 12:27:54;;;;;;;0.65;0.65;;;5.10;99.90;;;;;;4425666;32;20077;-57
2024/02/09 12:30:20;;;;;;;0.40;0.40;;;5.10;99.90;;;;;;4423409;32;20474;-60
2024/02/09 12:32:46;;;;;;;0.60;0.60;;;5.20;99.90;;;;;;4422404;32;20084;-58
2024/02/09 12:35:11;;;;;;;0.50;0.50;;;5.20;99.90;;;;;;4427624;32;21233;-57
2024/02/09 12:37:37;;;;;;;1.20;0.82;;;5.20;99.90;;;;;;4424872;32;20093;-55
2024/02/09 12:40:05;;;;;;;0.40;0.40;;;5.20;99.90;;;;;;4414265;32;20085;-57
2024/02/09 12:42:32;;;;;;;0.30;0.30;;;5.30;99.90;;;;;;4415187;32;20061;-60
2024/02/09 12:45:00;;;;;;;0.50;0.50;;;5.30;99.90;;;;;;4414278;32;20197;-60
2024/02/09 12:47:26;;;;;;;0.57;0.57;;;5.30;99.90;;;;;;4429508;32;20074;-58
2024/02/09 12:49:52;;;;;;;1.20;1.10;;;5.30;99.90;;;;;;4421211;32;20086;-58
2024/02/09 12:52:19;;;;;;;0.43;0.43;;;5.30;99.90;;;;;;4424566;32;20068;-58
2024/02/09 12:54:46;;;;;;;0.50;0.50;;;5.30;99.90;;;;;;4427902;32;20524;-58
2024/02/09 12:57:12;;;;;;;0.60;0.60;;;5.30;99.90;;;;;;4423439;32;20138;-58
2024/02/09 12:59:39;;;;;;;0.50;0.50;;;5.30;99.90;;;;;;4423756;32;20155;-58
2024/02/09 13:02:06;;;;;;;0.68;0.68;;;5.30;99.90;;;;;;4409659;32;20131;-59
2024/02/09 13:04:32;;;;;;;0.82;0.62;;;5.30;99.90;;;;;;4416313;32;20575;-58
2024/02/09 13:06:57;;;;;;;0.40;0.40;;;5.30;99.90;;;;;;4418091;32;20180;-58
2024/02/09 13:09:23;;;;;;;1.35;1.05;;;5.40;99.90;;;;;;4417112;32;20522;-57
2024/02/09 13:11:51;;;;;;;0.55;0.55;;;5.40;99.90;;;;;;4418502;32;20078;-58
2024/02/09 13:14:19;;;;;;;1.45;0.93;;;5.50;99.90;;;;;;4410553;32;20140;-58
2024/02/09 13:16:48;;;;;;;0.30;0.30;;;5.40;99.90;;;;;;4416646;32;20082;-58
2024/02/09 13:19:14;;;;;;;0.40;0.40;;;5.40;99.90;;;;;;4411720;32;20069;-59
2024/02/09 13:21:39;;;;;;;0.60;0.60;;;5.50;99.90;;;;;;4414407;32;20086;-59
2024/02/09 13:24:06;;;;;;;0.50;0.50;;;5.50;99.90;;;;;;4416260;32;20116;-60
2024/02/09 13:26:33;;;;;;;0.50;0.50;;;5.50;99.90;;;;;;4415574;32;20474;-59
2024/02/09 13:29:00;;;;;;;0.50;0.50;;;5.50;99.90;;;;;;4411776;32;20468;-57
2024/02/09 13:31:26;;;;;;;0.40;0.40;;;5.60;99.90;;;;;;4414639;32;20123;-58
2024/02/09 13:33:51;;;;;;;0.70;0.70;;;5.60;99.90;;;;;;4418013;32;20086;-59
2024/02/09 13:36:16;;;;;;;0.50;0.50;;;5.60;99.90;;;;;;4419153;32;20477;-59
2024/02/09 13:38:42;;;;;;;0.85;0.85;;;5.60;99.90;;;;;;4415988;32;20061;-58
2024/02/09 13:41:08;;;;;;;2.00;1.55;;;5.60;99.90;;;;;;4413526;32;20076;-58
2024/02/09 13:43:33;;;;;;;1.65;0.80;;;5.60;99.90;;;;;;4412718;32;20070;-57
2024/02/09 13:45:58;;;;;;;0.62;0.55;;;5.60;99.90;;;;;;4413374;32;20086;-58
2024/02/09 13:48:24;;;;;;;1.45;0.90;;;5.60;99.90;;;;;;4416025;32;20077;-57
2024/02/09 13:50:49;;;;;;;0.77;0.57;;;5.50;99.90;;;;;;4416777;32;20081;-57
2024/02/09 13:53:15;;;;;;;1.15;0.80;;;5.60;99.90;;;;;;4417397;32;20093;-58
2024/02/09 13:55:41;;;;;;;0.50;0.50;;;5.60;99.90;;;;;;4415042;32;20089;-58
2024/02/09 13:58:06;;;;;;;0.90;0.75;;;5.60;99.90;;;;;;4416439;32;20454;-57
2024/02/09 14:00:33;;;;;;;0.35;0.35;;;5.60;99.90;;;;;;4412717;32;20085;-60
2024/02/09 14:02:59;;;;;;;1.42;0.88;;;5.60;99.90;;;;;;4411325;32;20480;-58
2024/02/09 14:05:25;;;;;;;3.60;1.25;;;5.60;99.90;;;;;;4416718;32;20077;-58
2024/02/09 14:07:50;;;;;;;0.40;0.40;;;5.60;99.90;;;;;;4415668;32;20183;-57
2024/02/09 14:10:16;;;;;;;0.37;0.37;;;5.60;99.90;;;;;;4412309;32;20380;-59
2024/02/09 14:12:42;;;;;;;0.60;0.60;;;5.60;99.90;;;;;;4412186;32;20085;-59
2024/02/09 14:15:08;;;;;;;4.32;1.65;;;5.70;99.90;;;;;;4412648;32;20081;-58
2024/02/09 14:17:35;;;;;;;0.70;0.70;;;5.70;99.90;;;;;;4415301;32;20060;-58
2024/02/09 14:20:01;;;;;;;0.60;0.60;;;5.70;99.90;;;;;;4412884;32;20085;-59
2024/02/09 14:22:28;;;;;;;0.62;0.62;;;5.70;99.90;;;;;;4401479;32;20081;-59
2024/02/09 14:24:56;;;;;;;0.45;0.45;;;5.80;99.90;;;;;;4415750;32;20735;-61
2024/02/09 14:27:23;;;;;;;0.65;0.65;;;5.80;99.90;;;;;;4412680;32;20445;-59
2024/02/09 14:29:50;;;;;;;0.77;0.77;;;5.80;99.90;;;;;;4409317;32;20423;-56
2024/02/09 14:32:15;;;;;;;3.42;1.15;;;5.90;99.90;;;;;;4412221;32;20088;-60
2024/02/09 14:34:41;;;;;;;0.60;0.60;;;6.00;99.90;;;;;;4412901;32;20208;-58
2024/02/09 14:37:08;;;;;;;0.75;0.70;;;6.00;99.90;;;;;;4415212;32;20093;-60
2024/02/09 14:39:34;;;;;;;0.75;0.75;;;6.00;99.90;;;;;;4415837;32;20077;-59
2024/02/09 14:41:59;;;;;;;3.65;2.20;;;6.00;99.90;;;;;;4415214;32;20505;-57
2024/02/09 14:44:25;;;;;;;2.28;0.88;;;6.10;99.90;;;;;;4413745;32;20078;-56
2024/02/09 14:46:50;;;;;;;2.87;0.68;;;6.00;99.90;;;;;;4416719;32;20064;-56